sensor_id;sensor_type;location;lat;lon;timestamp;P1;durP1;ratioP1;P2;durP2;ratioP2
67108;SDS011;54027;50.786;7.058;2024-03-17T00:01:19;11.65;;;8.07;;
67108;SDS011;54027;50.786;7.058;2024-03-17T00:03:45;13.82;;;9.35;;
67108;SDS011;54027;50.786;7.058;2024-03-17T00:06:11;13.75;;;8.98;;
67108;SDS011;54027;50.786;7.058;2024-03-17T00:08:36;14.70;;;8.68;;
67108;SDS011;54027;50.786;7.058;2024-03-17T00:11:02;19.33;;;11.02;;
67108;SDS011;54027;50.786;7.058;2024-03-17T00:13:28;18.05;;;10.27;;
67108;SDS011;54027;50.786;7.058;2024-03-17T00:15:53;13.85;;;9.10;;
67108;SDS011;54027;50.786;7.058;2024-03-17T00:18:19;12.90;;;8.80;;
67108;SDS011;54027;50.786;7.058;2024-03-17T00:20:45;12.85;;;9.80;;
67108;SDS011;54027;50.786;7.058;2024-03-17T00:23:10;16.75;;;10.65;;
67108;SDS011;54027;50.786;7.058;2024-03-17T00:25:37;21.38;;;11.15;;
67108;SDS011;54027;50.786;7.058;2024-03-17T00:28:03;18.30;;;10.80;;
67108;SDS011;54027;50.786;7.058;2024-03-17T00:30:29;15.75;;;10.45;;
67108;SDS011;54027;50.786;7.058;2024-03-17T00:32:54;16.40;;;9.88;;
67108;SDS011;54027;50.786;7.058;2024-03-17T00:35:20;18.42;;;9.77;;
67108;SDS011;54027;50.786;7.058;2024-03-17T00:37:48;15.05;;;10.23;;
67108;SDS011;54027;50.786;7.058;2024-03-17T00:40:18;14.70;;;10.18;;
67108;SDS011;54027;50.786;7.058;2024-03-17T00:42:43;18.30;;;10.50;;
67108;SDS011;54027;50.786;7.058;2024-03-17T00:45:11;21.27;;;11.60;;
67108;SDS011;54027;50.786;7.058;2024-03-17T00:47:37;16.00;;;10.35;;
67108;SDS011;54027;50.786;7.058;2024-03-17T00:50:03;16.20;;;9.85;;
67108;SDS011;54027;50.786;7.058;2024-03-17T00:52:30;15.80;;;10.40;;
67108;SDS011;54027;50.786;7.058;2024-03-17T00:54:55;21.10;;;10.55;;
67108;SDS011;54027;50.786;7.058;2024-03-17T00:57:21;20.02;;;9.50;;
67108;SDS011;54027;50.786;7.058;2024-03-17T00:59:46;14.65;;;9.63;;
67108;SDS011;54027;50.786;7.058;2024-03-17T01:02:12;14.93;;;10.13;;
67108;SDS011;54027;50.786;7.058;2024-03-17T01:04:41;15.43;;;10.00;;
67108;SDS011;54027;50.786;7.058;2024-03-17T01:07:06;14.35;;;9.18;;
67108;SDS011;54027;50.786;7.058;2024-03-17T01:09:31;19.02;;;10.00;;
67108;SDS011;54027;50.786;7.058;2024-03-17T01:11:57;14.43;;;8.88;;
67108;SDS011;54027;50.786;7.058;2024-03-17T01:14:22;21.60;;;11.05;;
67108;SDS011;54027;50.786;7.058;2024-03-17T01:16:47;17.15;;;10.30;;
67108;SDS011;54027;50.786;7.058;2024-03-17T01:19:15;14.93;;;10.15;;
67108;SDS011;54027;50.786;7.058;2024-03-17T01:21:40;15.45;;;9.57;;
67108;SDS011;54027;50.786;7.058;2024-03-17T01:24:06;14.70;;;9.73;;
67108;SDS011;54027;50.786;7.058;2024-03-17T01:26:31;13.93;;;8.82;;
67108;SDS011;54027;50.786;7.058;2024-03-17T01:28:57;17.30;;;9.63;;
67108;SDS011;54027;50.786;7.058;2024-03-17T01:31:22;18.50;;;9.30;;
67108;SDS011;54027;50.786;7.058;2024-03-17T01:33:47;13.50;;;9.30;;
67108;SDS011;54027;50.786;7.058;2024-03-17T01:36:13;17.20;;;9.32;;
67108;SDS011;54027;50.786;7.058;2024-03-17T01:38:38;13.48;;;8.55;;
67108;SDS011;54027;50.786;7.058;2024-03-17T01:41:04;14.50;;;9.73;;
67108;SDS011;54027;50.786;7.058;2024-03-17T01:43:29;16.05;;;8.82;;
67108;SDS011;54027;50.786;7.058;2024-03-17T01:45:55;19.92;;;10.25;;
67108;SDS011;54027;50.786;7.058;2024-03-17T01:48:22;16.20;;;9.32;;
67108;SDS011;54027;50.786;7.058;2024-03-17T01:50:49;15.55;;;9.55;;
67108;SDS011;54027;50.786;7.058;2024-03-17T01:53:18;17.92;;;9.40;;
67108;SDS011;54027;50.786;7.058;2024-03-17T01:55:45;15.55;;;9.30;;
67108;SDS011;54027;50.786;7.058;2024-03-17T01:58:12;15.98;;;8.82;;
67108;SDS011;54027;50.786;7.058;2024-03-17T02:00:38;17.08;;;9.85;;
67108;SDS011;54027;50.786;7.058;2024-03-17T02:03:07;13.65;;;8.68;;
67108;SDS011;54027;50.786;7.058;2024-03-17T02:05:36;13.52;;;8.45;;
67108;SDS011;54027;50.786;7.058;2024-03-17T02:08:07;12.68;;;8.50;;
67108;SDS011;54027;50.786;7.058;2024-03-17T02:10:35;17.75;;;10.05;;
67108;SDS011;54027;50.786;7.058;2024-03-17T02:13:02;14.77;;;9.23;;
67108;SDS011;54027;50.786;7.058;2024-03-17T02:15:31;13.15;;;8.85;;
67108;SDS011;54027;50.786;7.058;2024-03-17T02:17:57;13.52;;;8.70;;
67108;SDS011;54027;50.786;7.058;2024-03-17T02:20:23;11.70;;;8.55;;
67108;SDS011;54027;50.786;7.058;2024-03-17T02:23:07;13.15;;;8.85;;
67108;SDS011;54027;50.786;7.058;2024-03-17T02:25:33;16.27;;;9.27;;
67108;SDS011;54027;50.786;7.058;2024-03-17T02:27:58;12.75;;;9.23;;
67108;SDS011;54027;50.786;7.058;2024-03-17T02:30:24;16.77;;;9.50;;
67108;SDS011;54027;50.786;7.058;2024-03-17T02:32:53;16.10;;;10.05;;
67108;SDS011;54027;50.786;7.058;2024-03-17T02:35:19;15.52;;;9.00;;
67108;SDS011;54027;50.786;7.058;2024-03-17T02:37:46;17.92;;;9.60;;
67108;SDS011;54027;50.786;7.058;2024-03-17T02:40:12;16.02;;;9.05;;
67108;SDS011;54027;50.786;7.058;2024-03-17T02:42:37;12.77;;;8.35;;
67108;SDS011;54027;50.786;7.058;2024-03-17T02:45:03;14.70;;;9.70;;
67108;SDS011;54027;50.786;7.058;2024-03-17T02:47:29;10.18;;;8.05;;
67108;SDS011;54027;50.786;7.058;2024-03-17T02:49:55;16.20;;;9.45;;
67108;SDS011;54027;50.786;7.058;2024-03-17T02:52:20;13.85;;;8.75;;
67108;SDS011;54027;50.786;7.058;2024-03-17T02:54:46;12.52;;;9.18;;
67108;SDS011;54027;50.786;7.058;2024-03-17T02:57:11;15.13;;;8.60;;
67108;SDS011;54027;50.786;7.058;2024-03-17T02:59:37;16.30;;;9.27;;
67108;SDS011;54027;50.786;7.058;2024-03-17T03:02:02;14.07;;;9.20;;
67108;SDS011;54027;50.786;7.058;2024-03-17T03:04:28;12.85;;;8.90;;
67108;SDS011;54027;50.786;7.058;2024-03-17T03:06:53;12.68;;;8.35;;
67108;SDS011;54027;50.786;7.058;2024-03-17T03:09:19;14.48;;;9.35;;
67108;SDS011;54027;50.786;7.058;2024-03-17T03:11:56;11.80;;;7.72;;
67108;SDS011;54027;50.786;7.058;2024-03-17T03:14:21;14.40;;;8.75;;
67108;SDS011;54027;50.786;7.058;2024-03-17T03:16:47;12.98;;;8.43;;
67108;SDS011;54027;50.786;7.058;2024-03-17T03:19:12;13.63;;;8.70;;
67108;SDS011;54027;50.786;7.058;2024-03-17T03:21:37;15.55;;;8.88;;
67108;SDS011;54027;50.786;7.058;2024-03-17T03:24:03;14.25;;;8.95;;
67108;SDS011;54027;50.786;7.058;2024-03-17T03:26:28;13.95;;;7.63;;
67108;SDS011;54027;50.786;7.058;2024-03-17T03:28:54;17.63;;;7.70;;
67108;SDS011;54027;50.786;7.058;2024-03-17T03:31:20;12.05;;;8.32;;
67108;SDS011;54027;50.786;7.058;2024-03-17T03:33:45;12.13;;;7.97;;
67108;SDS011;54027;50.786;7.058;2024-03-17T03:36:11;10.85;;;7.60;;
67108;SDS011;54027;50.786;7.058;2024-03-17T03:38:38;13.80;;;7.93;;
67108;SDS011;54027;50.786;7.058;2024-03-17T03:41:10;11.38;;;7.60;;
67108;SDS011;54027;50.786;7.058;2024-03-17T03:43:38;13.25;;;7.63;;
67108;SDS011;54027;50.786;7.058;2024-03-17T03:46:04;18.88;;;9.27;;
67108;SDS011;54027;50.786;7.058;2024-03-17T03:48:31;14.73;;;8.85;;
67108;SDS011;54027;50.786;7.058;2024-03-17T03:50:57;14.82;;;8.10;;
67108;SDS011;54027;50.786;7.058;2024-03-17T03:53:23;12.20;;;7.90;;
67108;SDS011;54027;50.786;7.058;2024-03-17T03:55:49;13.05;;;8.32;;
67108;SDS011;54027;50.786;7.058;2024-03-17T03:58:14;16.00;;;8.30;;
67108;SDS011;54027;50.786;7.058;2024-03-17T04:00:40;15.13;;;8.77;;
67108;SDS011;54027;50.786;7.058;2024-03-17T04:03:06;14.55;;;8.35;;
67108;SDS011;54027;50.786;7.058;2024-03-17T04:05:31;17.73;;;9.40;;
67108;SDS011;54027;50.786;7.058;2024-03-17T04:07:57;15.18;;;9.80;;
67108;SDS011;54027;50.786;7.058;2024-03-17T04:10:23;13.52;;;9.18;;
67108;SDS011;54027;50.786;7.058;2024-03-17T04:12:49;17.33;;;10.70;;
67108;SDS011;54027;50.786;7.058;2024-03-17T04:15:14;14.07;;;9.98;;
67108;SDS011;54027;50.786;7.058;2024-03-17T04:17:40;13.98;;;10.18;;
67108;SDS011;54027;50.786;7.058;2024-03-17T04:20:07;17.42;;;10.18;;
67108;SDS011;54027;50.786;7.058;2024-03-17T04:22:34;14.93;;;9.75;;
67108;SDS011;54027;50.786;7.058;2024-03-17T04:25:00;15.77;;;10.02;;
67108;SDS011;54027;50.786;7.058;2024-03-17T04:27:25;15.85;;;10.00;;
67108;SDS011;54027;50.786;7.058;2024-03-17T04:29:55;15.07;;;10.05;;
67108;SDS011;54027;50.786;7.058;2024-03-17T04:32:22;14.02;;;8.77;;
67108;SDS011;54027;50.786;7.058;2024-03-17T04:34:48;16.23;;;9.63;;
67108;SDS011;54027;50.786;7.058;2024-03-17T04:37:14;14.30;;;9.25;;
67108;SDS011;54027;50.786;7.058;2024-03-17T04:39:43;15.02;;;9.27;;
67108;SDS011;54027;50.786;7.058;2024-03-17T04:42:10;16.58;;;9.68;;
67108;SDS011;54027;50.786;7.058;2024-03-17T04:44:36;13.18;;;9.00;;
67108;SDS011;54027;50.786;7.058;2024-03-17T04:47:02;14.50;;;10.00;;
67108;SDS011;54027;50.786;7.058;2024-03-17T04:49:35;12.52;;;8.60;;
67108;SDS011;54027;50.786;7.058;2024-03-17T04:52:01;17.58;;;8.95;;
67108;SDS011;54027;50.786;7.058;2024-03-17T04:54:26;12.60;;;8.88;;
67108;SDS011;54027;50.786;7.058;2024-03-17T04:56:52;16.50;;;9.10;;
67108;SDS011;54027;50.786;7.058;2024-03-17T04:59:17;16.20;;;10.13;;
67108;SDS011;54027;50.786;7.058;2024-03-17T05:01:43;18.52;;;10.13;;
67108;SDS011;54027;50.786;7.058;2024-03-17T05:04:08;16.45;;;10.00;;
67108;SDS011;54027;50.786;7.058;2024-03-17T05:06:33;20.90;;;10.35;;
67108;SDS011;54027;50.786;7.058;2024-03-17T05:08:59;18.95;;;11.63;;
67108;SDS011;54027;50.786;7.058;2024-03-17T05:11:24;21.73;;;10.65;;
67108;SDS011;54027;50.786;7.058;2024-03-17T05:13:50;16.35;;;11.05;;
67108;SDS011;54027;50.786;7.058;2024-03-17T05:16:15;16.58;;;10.07;;
67108;SDS011;54027;50.786;7.058;2024-03-17T05:18:41;16.50;;;10.05;;
67108;SDS011;54027;50.786;7.058;2024-03-17T05:21:06;15.50;;;9.55;;
67108;SDS011;54027;50.786;7.058;2024-03-17T05:23:34;16.95;;;9.63;;
67108;SDS011;54027;50.786;7.058;2024-03-17T05:26:01;21.10;;;10.02;;
67108;SDS011;54027;50.786;7.058;2024-03-17T05:28:27;18.35;;;9.63;;
67108;SDS011;54027;50.786;7.058;2024-03-17T05:30:54;18.70;;;9.65;;
67108;SDS011;54027;50.786;7.058;2024-03-17T05:33:22;13.32;;;9.13;;
67108;SDS011;54027;50.786;7.058;2024-03-17T05:35:48;14.10;;;9.27;;
67108;SDS011;54027;50.786;7.058;2024-03-17T05:38:15;15.05;;;9.15;;
67108;SDS011;54027;50.786;7.058;2024-03-17T05:40:41;13.15;;;8.38;;
67108;SDS011;54027;50.786;7.058;2024-03-17T05:43:07;14.07;;;8.55;;
67108;SDS011;54027;50.786;7.058;2024-03-17T05:45:32;14.70;;;8.00;;
67108;SDS011;54027;50.786;7.058;2024-03-17T05:47:57;13.52;;;7.95;;
67108;SDS011;54027;50.786;7.058;2024-03-17T05:50:23;16.42;;;8.45;;
67108;SDS011;54027;50.786;7.058;2024-03-17T05:52:48;12.85;;;7.90;;
67108;SDS011;54027;50.786;7.058;2024-03-17T05:55:14;14.50;;;8.32;;
67108;SDS011;54027;50.786;7.058;2024-03-17T05:57:39;14.93;;;8.93;;
67108;SDS011;54027;50.786;7.058;2024-03-17T06:00:06;15.10;;;8.18;;
67108;SDS011;54027;50.786;7.058;2024-03-17T06:02:32;12.68;;;8.05;;
67108;SDS011;54027;50.786;7.058;2024-03-17T06:04:57;14.55;;;8.30;;
67108;SDS011;54027;50.786;7.058;2024-03-17T06:07:29;11.23;;;7.63;;
67108;SDS011;54027;50.786;7.058;2024-03-17T06:09:55;13.20;;;8.50;;
67108;SDS011;54027;50.786;7.058;2024-03-17T06:12:20;11.98;;;8.23;;
67108;SDS011;54027;50.786;7.058;2024-03-17T06:14:46;16.60;;;9.07;;
67108;SDS011;54027;50.786;7.058;2024-03-17T06:17:11;13.02;;;8.02;;
67108;SDS011;54027;50.786;7.058;2024-03-17T06:19:36;13.35;;;8.30;;
67108;SDS011;54027;50.786;7.058;2024-03-17T06:22:02;15.45;;;9.00;;
67108;SDS011;54027;50.786;7.058;2024-03-17T06:24:28;16.95;;;9.02;;
67108;SDS011;54027;50.786;7.058;2024-03-17T06:26:53;16.20;;;9.48;;
67108;SDS011;54027;50.786;7.058;2024-03-17T06:29:19;14.65;;;9.02;;
67108;SDS011;54027;50.786;7.058;2024-03-17T06:31:45;18.92;;;10.27;;
67108;SDS011;54027;50.786;7.058;2024-03-17T06:34:10;21.45;;;9.63;;
67108;SDS011;54027;50.786;7.058;2024-03-17T06:36:36;21.67;;;10.07;;
67108;SDS011;54027;50.786;7.058;2024-03-17T06:39:01;19.83;;;10.02;;
67108;SDS011;54027;50.786;7.058;2024-03-17T06:41:26;19.27;;;9.43;;
67108;SDS011;54027;50.786;7.058;2024-03-17T06:43:52;16.15;;;9.05;;
67108;SDS011;54027;50.786;7.058;2024-03-17T06:46:17;15.88;;;8.90;;
67108;SDS011;54027;50.786;7.058;2024-03-17T06:48:43;12.38;;;8.32;;
67108;SDS011;54027;50.786;7.058;2024-03-17T06:51:09;16.33;;;8.40;;
67108;SDS011;54027;50.786;7.058;2024-03-17T06:53:34;11.27;;;8.00;;
67108;SDS011;54027;50.786;7.058;2024-03-17T06:55:59;15.13;;;8.38;;
67108;SDS011;54027;50.786;7.058;2024-03-17T06:58:26;12.27;;;8.32;;
67108;SDS011;54027;50.786;7.058;2024-03-17T07:00:56;9.43;;;7.10;;
67108;SDS011;54027;50.786;7.058;2024-03-17T07:03:23;12.07;;;7.03;;
67108;SDS011;54027;50.786;7.058;2024-03-17T07:05:53;14.48;;;7.40;;
67108;SDS011;54027;50.786;7.058;2024-03-17T07:08:23;14.38;;;7.07;;
67108;SDS011;54027;50.786;7.058;2024-03-17T07:13:37;10.00;;;6.82;;
67108;SDS011;54027;50.786;7.058;2024-03-17T07:16:07;14.90;;;7.35;;
67108;SDS011;54027;50.786;7.058;2024-03-17T07:18:33;10.48;;;6.55;;
67108;SDS011;54027;50.786;7.058;2024-03-17T07:20:59;10.70;;;7.07;;
67108;SDS011;54027;50.786;7.058;2024-03-17T07:23:26;11.35;;;6.63;;
67108;SDS011;54027;50.786;7.058;2024-03-17T07:25:52;12.35;;;7.07;;
67108;SDS011;54027;50.786;7.058;2024-03-17T07:28:18;12.77;;;6.60;;
67108;SDS011;54027;50.786;7.058;2024-03-17T07:31:02;11.93;;;6.60;;
67108;SDS011;54027;50.786;7.058;2024-03-17T07:33:27;11.23;;;6.70;;
67108;SDS011;54027;50.786;7.058;2024-03-17T07:35:54;10.25;;;6.25;;
67108;SDS011;54027;50.786;7.058;2024-03-17T07:38:21;12.77;;;5.88;;
67108;SDS011;54027;50.786;7.058;2024-03-17T07:40:58;8.52;;;5.35;;
67108;SDS011;54027;50.786;7.058;2024-03-17T07:43:27;8.98;;;5.40;;
67108;SDS011;54027;50.786;7.058;2024-03-17T07:48:26;9.30;;;4.90;;
67108;SDS011;54027;50.786;7.058;2024-03-17T07:50:57;12.38;;;5.40;;
67108;SDS011;54027;50.786;7.058;2024-03-17T07:53:23;8.38;;;5.35;;
67108;SDS011;54027;50.786;7.058;2024-03-17T07:56:02;12.35;;;5.38;;
67108;SDS011;54027;50.786;7.058;2024-03-17T07:58:29;7.75;;;4.75;;
67108;SDS011;54027;50.786;7.058;2024-03-17T08:01:14;9.02;;;4.80;;
67108;SDS011;54027;50.786;7.058;2024-03-17T08:03:41;11.07;;;4.85;;
67108;SDS011;54027;50.786;7.058;2024-03-17T08:06:09;7.70;;;4.60;;
67108;SDS011;54027;50.786;7.058;2024-03-17T08:08:36;7.30;;;4.63;;
67108;SDS011;54027;50.786;7.058;2024-03-17T08:11:01;7.28;;;3.92;;
67108;SDS011;54027;50.786;7.058;2024-03-17T08:13:30;10.70;;;4.80;;
67108;SDS011;54027;50.786;7.058;2024-03-17T08:16:01;8.32;;;5.32;;
67108;SDS011;54027;50.786;7.058;2024-03-17T08:18:28;7.32;;;4.50;;
67108;SDS011;54027;50.786;7.058;2024-03-17T08:20:54;10.90;;;4.57;;
67108;SDS011;54027;50.786;7.058;2024-03-17T08:23:20;8.73;;;4.85;;
67108;SDS011;54027;50.786;7.058;2024-03-17T08:25:58;8.52;;;4.10;;
67108;SDS011;54027;50.786;7.058;2024-03-17T08:28:25;8.68;;;4.55;;
67108;SDS011;54027;50.786;7.058;2024-03-17T08:30:55;6.85;;;4.07;;
67108;SDS011;54027;50.786;7.058;2024-03-17T08:33:21;10.85;;;3.80;;
67108;SDS011;54027;50.786;7.058;2024-03-17T08:35:57;6.55;;;3.60;;
67108;SDS011;54027;50.786;7.058;2024-03-17T08:38:22;6.40;;;3.92;;
67108;SDS011;54027;50.786;7.058;2024-03-17T08:40:49;5.35;;;4.43;;
67108;SDS011;54027;50.786;7.058;2024-03-17T08:43:15;5.90;;;4.15;;
67108;SDS011;54027;50.786;7.058;2024-03-17T08:45:41;7.60;;;3.72;;
67108;SDS011;54027;50.786;7.058;2024-03-17T08:48:06;7.72;;;4.05;;
67108;SDS011;54027;50.786;7.058;2024-03-17T08:50:32;7.00;;;3.80;;
67108;SDS011;54027;50.786;7.058;2024-03-17T08:52:59;6.40;;;3.50;;
67108;SDS011;54027;50.786;7.058;2024-03-17T08:55:24;6.82;;;3.80;;
67108;SDS011;54027;50.786;7.058;2024-03-17T08:57:50;6.68;;;3.67;;
67108;SDS011;54027;50.786;7.058;2024-03-17T09:00:15;7.65;;;3.05;;
67108;SDS011;54027;50.786;7.058;2024-03-17T09:02:41;5.07;;;3.20;;
67108;SDS011;54027;50.786;7.058;2024-03-17T09:05:07;5.15;;;2.97;;
67108;SDS011;54027;50.786;7.058;2024-03-17T09:07:32;6.07;;;3.25;;
67108;SDS011;54027;50.786;7.058;2024-03-17T09:09:58;4.85;;;3.08;;
67108;SDS011;54027;50.786;7.058;2024-03-17T09:12:24;3.88;;;2.92;;
67108;SDS011;54027;50.786;7.058;2024-03-17T09:14:50;5.53;;;3.63;;
67108;SDS011;54027;50.786;7.058;2024-03-17T09:17:15;5.50;;;2.70;;
67108;SDS011;54027;50.786;7.058;2024-03-17T09:19:41;8.48;;;3.08;;
67108;SDS011;54027;50.786;7.058;2024-03-17T09:22:06;7.35;;;3.53;;
67108;SDS011;54027;50.786;7.058;2024-03-17T09:24:32;4.65;;;2.50;;
67108;SDS011;54027;50.786;7.058;2024-03-17T09:26:57;5.85;;;3.28;;
67108;SDS011;54027;50.786;7.058;2024-03-17T09:29:22;4.90;;;3.03;;
67108;SDS011;54027;50.786;7.058;2024-03-17T09:31:49;4.57;;;3.00;;
67108;SDS011;54027;50.786;7.058;2024-03-17T09:34:14;5.88;;;2.90;;
67108;SDS011;54027;50.786;7.058;2024-03-17T09:36:40;6.55;;;2.80;;
67108;SDS011;54027;50.786;7.058;2024-03-17T09:39:05;5.07;;;3.00;;
67108;SDS011;54027;50.786;7.058;2024-03-17T09:41:31;6.05;;;3.17;;
67108;SDS011;54027;50.786;7.058;2024-03-17T09:43:57;4.53;;;3.47;;
67108;SDS011;54027;50.786;7.058;2024-03-17T09:46:24;5.15;;;3.00;;
67108;SDS011;54027;50.786;7.058;2024-03-17T09:48:51;4.18;;;2.65;;
67108;SDS011;54027;50.786;7.058;2024-03-17T09:51:20;11.10;;;2.85;;
67108;SDS011;54027;50.786;7.058;2024-03-17T09:53:47;4.82;;;2.90;;
67108;SDS011;54027;50.786;7.058;2024-03-17T09:56:14;6.30;;;2.97;;
67108;SDS011;54027;50.786;7.058;2024-03-17T09:58:41;4.20;;;2.90;;
67108;SDS011;54027;50.786;7.058;2024-03-17T10:01:07;5.43;;;2.70;;
67108;SDS011;54027;50.786;7.058;2024-03-17T10:06:11;5.53;;;3.08;;
67108;SDS011;54027;50.786;7.058;2024-03-17T10:08:40;7.55;;;3.28;;
67108;SDS011;54027;50.786;7.058;2024-03-17T10:11:13;4.55;;;2.40;;
67108;SDS011;54027;50.786;7.058;2024-03-17T10:13:41;4.82;;;2.40;;
67108;SDS011;54027;50.786;7.058;2024-03-17T10:16:17;6.00;;;2.42;;
67108;SDS011;54027;50.786;7.058;2024-03-17T10:18:48;5.32;;;2.63;;
67108;SDS011;54027;50.786;7.058;2024-03-17T10:21:24;6.45;;;2.65;;
67108;SDS011;54027;50.786;7.058;2024-03-17T10:24:13;4.20;;;2.72;;
67108;SDS011;54027;50.786;7.058;2024-03-17T10:29:04;5.03;;;2.28;;
67108;SDS011;54027;50.786;7.058;2024-03-17T10:31:40;6.60;;;2.50;;
67108;SDS011;54027;50.786;7.058;2024-03-17T10:34:06;5.10;;;2.90;;
67108;SDS011;54027;50.786;7.058;2024-03-17T10:36:41;7.00;;;2.80;;
67108;SDS011;54027;50.786;7.058;2024-03-17T10:39:16;4.78;;;2.35;;
67108;SDS011;54027;50.786;7.058;2024-03-17T10:41:55;5.80;;;2.60;;
67108;SDS011;54027;50.786;7.058;2024-03-17T10:44:22;5.50;;;2.20;;
67108;SDS011;54027;50.786;7.058;2024-03-17T10:46:47;5.78;;;2.30;;
67108;SDS011;54027;50.786;7.058;2024-03-17T10:49:16;5.82;;;2.92;;
67108;SDS011;54027;50.786;7.058;2024-03-17T10:51:42;3.15;;;2.60;;
67108;SDS011;54027;50.786;7.058;2024-03-17T10:54:15;3.13;;;2.45;;
67108;SDS011;54027;50.786;7.058;2024-03-17T10:56:48;4.15;;;2.47;;
67108;SDS011;54027;50.786;7.058;2024-03-17T10:59:14;2.40;;;2.13;;
67108;SDS011;54027;50.786;7.058;2024-03-17T11:01:43;5.28;;;2.30;;
67108;SDS011;54027;50.786;7.058;2024-03-17T11:04:10;8.07;;;3.00;;
67108;SDS011;54027;50.786;7.058;2024-03-17T11:06:38;4.88;;;2.40;;
67108;SDS011;54027;50.786;7.058;2024-03-17T11:09:05;4.78;;;2.58;;
67108;SDS011;54027;50.786;7.058;2024-03-17T11:11:38;5.85;;;2.80;;
67108;SDS011;54027;50.786;7.058;2024-03-17T11:14:17;6.28;;;2.60;;
67108;SDS011;54027;50.786;7.058;2024-03-17T11:16:47;2.70;;;2.20;;
67108;SDS011;54027;50.786;7.058;2024-03-17T11:19:16;4.57;;;2.40;;
67108;SDS011;54027;50.786;7.058;2024-03-17T11:21:42;3.78;;;2.22;;
67108;SDS011;54027;50.786;7.058;2024-03-17T11:24:30;5.88;;;2.63;;
67108;SDS011;54027;50.786;7.058;2024-03-17T11:26:54;4.68;;;2.60;;
67108;SDS011;54027;50.786;7.058;2024-03-17T11:29:29;5.40;;;2.40;;
67108;SDS011;54027;50.786;7.058;2024-03-17T11:31:57;3.67;;;2.60;;
67108;SDS011;54027;50.786;7.058;2024-03-17T11:36:59;8.05;;;2.75;;
67108;SDS011;54027;50.786;7.058;2024-03-17T11:42:20;4.20;;;2.73;;
67108;SDS011;54027;50.786;7.058;2024-03-17T11:44:57;4.70;;;2.65;;
67108;SDS011;54027;50.786;7.058;2024-03-17T11:47:32;4.55;;;2.75;;
67108;SDS011;54027;50.786;7.058;2024-03-17T11:50:01;7.35;;;3.22;;
67108;SDS011;54027;50.786;7.058;2024-03-17T11:52:30;4.47;;;2.33;;
67108;SDS011;54027;50.786;7.058;2024-03-17T11:54:56;5.63;;;2.63;;
67108;SDS011;54027;50.786;7.058;2024-03-17T11:57:23;8.43;;;2.92;;
67108;SDS011;54027;50.786;7.058;2024-03-17T11:59:49;4.75;;;2.63;;
67108;SDS011;54027;50.786;7.058;2024-03-17T12:02:22;6.70;;;2.60;;
67108;SDS011;54027;50.786;7.058;2024-03-17T12:04:51;4.03;;;2.75;;
67108;SDS011;54027;50.786;7.058;2024-03-17T12:07:18;5.25;;;2.50;;
67108;SDS011;54027;50.786;7.058;2024-03-17T12:09:46;5.90;;;2.95;;
67108;SDS011;54027;50.786;7.058;2024-03-17T12:12:19;5.43;;;3.28;;
67108;SDS011;54027;50.786;7.058;2024-03-17T12:14:46;5.20;;;2.70;;
67108;SDS011;54027;50.786;7.058;2024-03-17T12:17:14;4.40;;;2.70;;
67108;SDS011;54027;50.786;7.058;2024-03-17T12:19:40;4.13;;;2.92;;
67108;SDS011;54027;50.786;7.058;2024-03-17T12:22:09;4.10;;;2.47;;
67108;SDS011;54027;50.786;7.058;2024-03-17T12:24:43;3.97;;;2.60;;
67108;SDS011;54027;50.786;7.058;2024-03-17T12:27:09;5.00;;;3.10;;
67108;SDS011;54027;50.786;7.058;2024-03-17T12:29:43;5.72;;;2.60;;
67108;SDS011;54027;50.786;7.058;2024-03-17T12:34:35;5.22;;;2.80;;
67108;SDS011;54027;50.786;7.058;2024-03-17T12:37:01;5.13;;;2.75;;
67108;SDS011;54027;50.786;7.058;2024-03-17T12:39:30;3.70;;;2.80;;
67108;SDS011;54027;50.786;7.058;2024-03-17T12:42:03;4.88;;;2.80;;
67108;SDS011;54027;50.786;7.058;2024-03-17T12:44:39;5.93;;;3.35;;
67108;SDS011;54027;50.786;7.058;2024-03-17T12:47:17;4.68;;;2.72;;
67108;SDS011;54027;50.786;7.058;2024-03-17T12:49:53;4.53;;;3.20;;
67108;SDS011;54027;50.786;7.058;2024-03-17T12:55:01;7.18;;;3.40;;
67108;SDS011;54027;50.786;7.058;2024-03-17T12:57:46;5.07;;;3.17;;
67108;SDS011;54027;50.786;7.058;2024-03-17T13:00:32;4.22;;;2.75;;
67108;SDS011;54027;50.786;7.058;2024-03-17T13:02:58;5.88;;;2.70;;
67108;SDS011;54027;50.786;7.058;2024-03-17T13:05:24;3.67;;;2.83;;
67108;SDS011;54027;50.786;7.058;2024-03-17T13:07:50;6.72;;;3.03;;
67108;SDS011;54027;50.786;7.058;2024-03-17T13:10:17;5.38;;;2.90;;
67108;SDS011;54027;50.786;7.058;2024-03-17T13:12:43;5.28;;;2.80;;
67108;SDS011;54027;50.786;7.058;2024-03-17T13:15:13;6.45;;;2.90;;
67108;SDS011;54027;50.786;7.058;2024-03-17T13:17:40;5.95;;;3.60;;
67108;SDS011;54027;50.786;7.058;2024-03-17T13:20:13;5.55;;;2.67;;
67108;SDS011;54027;50.786;7.058;2024-03-17T13:22:43;4.53;;;3.03;;
67108;SDS011;54027;50.786;7.058;2024-03-17T13:25:14;7.47;;;3.55;;
67108;SDS011;54027;50.786;7.058;2024-03-17T13:27:44;6.00;;;3.10;;
67108;SDS011;54027;50.786;7.058;2024-03-17T13:30:11;5.78;;;3.45;;
67108;SDS011;54027;50.786;7.058;2024-03-17T13:32:40;5.38;;;3.28;;
67108;SDS011;54027;50.786;7.058;2024-03-17T13:35:16;7.38;;;3.30;;
67108;SDS011;54027;50.786;7.058;2024-03-17T13:37:45;7.57;;;3.20;;
67108;SDS011;54027;50.786;7.058;2024-03-17T13:40:12;5.05;;;2.88;;
67108;SDS011;54027;50.786;7.058;2024-03-17T13:42:41;6.38;;;3.28;;
67108;SDS011;54027;50.786;7.058;2024-03-17T13:45:13;6.18;;;3.05;;
67108;SDS011;54027;50.786;7.058;2024-03-17T13:47:39;6.22;;;2.63;;
67108;SDS011;54027;50.786;7.058;2024-03-17T13:50:06;4.30;;;2.97;;
67108;SDS011;54027;50.786;7.058;2024-03-17T13:52:39;5.50;;;2.78;;
67108;SDS011;54027;50.786;7.058;2024-03-17T13:55:14;6.68;;;2.85;;
67108;SDS011;54027;50.786;7.058;2024-03-17T13:57:44;7.05;;;3.10;;
67108;SDS011;54027;50.786;7.058;2024-03-17T14:00:19;4.85;;;3.15;;
67108;SDS011;54027;50.786;7.058;2024-03-17T14:02:46;4.38;;;2.70;;
67108;SDS011;54027;50.786;7.058;2024-03-17T14:05:13;4.20;;;3.08;;
67108;SDS011;54027;50.786;7.058;2024-03-17T14:07:40;7.00;;;2.70;;
67108;SDS011;54027;50.786;7.058;2024-03-17T14:10:07;4.05;;;2.70;;
67108;SDS011;54027;50.786;7.058;2024-03-17T14:12:34;5.20;;;2.97;;
67108;SDS011;54027;50.786;7.058;2024-03-17T14:15:04;5.07;;;2.67;;
67108;SDS011;54027;50.786;7.058;2024-03-17T14:17:30;5.72;;;2.58;;
67108;SDS011;54027;50.786;7.058;2024-03-17T14:19:56;7.45;;;2.70;;
67108;SDS011;54027;50.786;7.058;2024-03-17T14:22:22;4.97;;;2.33;;
67108;SDS011;54027;50.786;7.058;2024-03-17T14:24:47;7.80;;;2.70;;
67108;SDS011;54027;50.786;7.058;2024-03-17T14:27:13;4.30;;;2.63;;
67108;SDS011;54027;50.786;7.058;2024-03-17T14:29:39;6.18;;;2.40;;
67108;SDS011;54027;50.786;7.058;2024-03-17T14:32:04;4.93;;;2.38;;
67108;SDS011;54027;50.786;7.058;2024-03-17T14:34:31;4.15;;;2.20;;
67108;SDS011;54027;50.786;7.058;2024-03-17T14:37:03;4.20;;;2.40;;
67108;SDS011;54027;50.786;7.058;2024-03-17T14:39:29;2.95;;;2.17;;
67108;SDS011;54027;50.786;7.058;2024-03-17T14:41:55;6.88;;;2.72;;
67108;SDS011;54027;50.786;7.058;2024-03-17T14:44:21;3.45;;;2.00;;
67108;SDS011;54027;50.786;7.058;2024-03-17T14:46:48;5.32;;;2.30;;
67108;SDS011;54027;50.786;7.058;2024-03-17T14:49:17;4.32;;;2.58;;
67108;SDS011;54027;50.786;7.058;2024-03-17T14:51:43;3.80;;;2.35;;
67108;SDS011;54027;50.786;7.058;2024-03-17T14:54:08;3.65;;;2.58;;
67108;SDS011;54027;50.786;7.058;2024-03-17T14:56:34;4.97;;;2.55;;
67108;SDS011;54027;50.786;7.058;2024-03-17T14:59:00;4.68;;;2.95;;
67108;SDS011;54027;50.786;7.058;2024-03-17T15:01:26;5.47;;;2.75;;